createdAt,value
2022-11-09T00:01:12.989Z,1.92
2022-11-09T00:05:14.472Z,1.65
2022-11-09T00:09:16.006Z,1.70
2022-11-09T00:13:17.856Z,2.17
2022-11-09T00:17:19.685Z,2.28
2022-11-09T00:21:22.900Z,1.83
2022-11-09T00:25:24.738Z,2.22
2022-11-09T00:29:26.170Z,1.65
2022-11-09T00:33:27.753Z,2.35
2022-11-09T00:37:30.268Z,2.10
2022-11-09T00:41:31.748Z,2.08
2022-11-09T00:45:33.144Z,1.90
2022-11-09T00:49:34.511Z,1.80
2022-11-09T00:53:36.026Z,1.65
2022-11-09T00:57:40.008Z,1.90
2022-11-09T01:01:41.454Z,1.85
2022-11-09T01:05:42.968Z,1.85
2022-11-09T01:09:44.317Z,2.22
2022-11-09T01:13:46.587Z,1.95
2022-11-09T01:17:48.134Z,1.90
2022-11-09T01:21:49.550Z,2.10
2022-11-09T01:25:58.475Z,2.17
2022-11-09T01:29:59.887Z,2.38
2022-11-09T01:34:01.300Z,2.22
2022-11-09T01:38:04.822Z,1.98
2022-11-09T01:42:06.302Z,2.40
2022-11-09T01:46:16.484Z,1.92
2022-11-09T01:50:27.790Z,2.10
2022-11-09T01:54:33.807Z,1.95
2022-11-09T01:58:47.057Z,1.95
2022-11-09T02:03:02.247Z,2.28
2022-11-09T02:07:05.009Z,2.13
2022-11-09T02:11:12.045Z,1.90
2022-11-09T02:15:13.613Z,2.45
2022-11-09T02:19:15.146Z,2.20
2022-11-09T02:23:17.844Z,2.28
2022-11-09T02:27:20.247Z,2.17
2022-11-09T02:31:24.606Z,2.13
2022-11-09T02:35:25.989Z,2.13
2022-11-09T02:39:28.661Z,2.03
2022-11-09T02:43:30.273Z,1.92
2022-11-09T02:47:31.674Z,1.92
2022-11-09T02:51:33.183Z,2.58
2022-11-09T02:55:34.638Z,2.15
2022-11-09T02:59:35.995Z,1.85
2022-11-09T03:03:37.399Z,1.75
2022-11-09T03:07:38.785Z,1.98
2022-11-09T03:11:41.758Z,1.92
2022-11-09T03:15:43.167Z,2.10
2022-11-09T03:19:45.224Z,2.03
2022-11-09T03:23:46.651Z,1.90
2022-11-09T03:27:48.064Z,1.95
2022-11-09T03:31:49.413Z,1.80
2022-11-09T03:35:51.327Z,2.30
2022-11-09T03:39:52.792Z,2.30
2022-11-09T03:43:54.224Z,1.60
2022-11-09T03:48:00.460Z,1.95
2022-11-09T03:52:01.903Z,1.85
2022-11-09T03:56:03.413Z,2.00
2022-11-09T04:00:08.868Z,2.40
2022-11-09T04:04:10.307Z,2.08
2022-11-09T04:08:11.699Z,2.15
2022-11-09T04:12:13.148Z,2.25
2022-11-09T04:16:14.711Z,2.03
2022-11-09T04:20:16.434Z,1.95
2022-11-09T04:24:17.840Z,1.95
2022-11-09T04:28:19.302Z,2.35
2022-11-09T04:32:20.767Z,2.00
2022-11-09T04:36:22.235Z,1.75
2022-11-09T04:40:26.190Z,2.10
2022-11-09T04:44:29.110Z,2.22
2022-11-09T04:48:31.325Z,2.58
2022-11-09T04:52:32.781Z,1.90
2022-11-09T04:56:34.209Z,1.95
2022-11-09T05:00:36.258Z,2.20
2022-11-09T05:04:37.702Z,1.92
2022-11-09T05:08:42.570Z,2.72
2022-11-09T05:12:46.051Z,2.30
2022-11-09T05:16:47.544Z,2.15
2022-11-09T05:20:48.951Z,2.00
2022-11-09T05:24:51.761Z,2.22
2022-11-09T05:28:53.885Z,2.58
2022-11-09T05:32:55.346Z,2.17
2022-11-09T05:37:02.230Z,2.50
2022-11-09T05:41:04.847Z,2.67
2022-11-09T05:45:40.122Z,2.50
2022-11-09T05:49:29.615Z,2.50
2022-11-09T05:53:31.713Z,2.20
2022-11-09T05:57:33.528Z,2.22
2022-11-09T06:01:34.903Z,2.30
2022-11-09T06:05:37.753Z,2.72
2022-11-09T06:09:39.166Z,2.58
2022-11-09T06:13:40.935Z,2.28
2022-11-09T06:17:42.374Z,2.25
2022-11-09T06:21:43.827Z,2.58
2022-11-09T06:25:45.420Z,2.50
2022-11-09T06:29:47.098Z,2.25
2022-11-09T06:33:48.668Z,2.47
2022-11-09T06:37:55.607Z,2.75
2022-11-09T06:41:57.065Z,2.47
2022-11-09T06:45:58.540Z,2.35
2022-11-09T06:50:00.006Z,2.90
2022-11-09T06:54:01.466Z,2.85
2022-11-09T06:58:15.930Z,2.45
2022-11-09T07:02:20.302Z,2.40
2022-11-09T07:06:21.763Z,2.40
2022-11-09T07:10:23.740Z,2.58
2022-11-09T07:14:25.106Z,2.70
2022-11-09T07:18:27.092Z,3.13
2022-11-09T07:22:28.852Z,2.92
2022-11-09T07:26:30.445Z,2.80
2022-11-09T07:30:32.052Z,3.42
2022-11-09T07:34:33.510Z,3.67
2022-11-09T07:38:35.091Z,2.90
2022-11-09T07:42:36.494Z,3.60
2022-11-09T07:46:37.957Z,3.30
2022-11-09T07:50:40.618Z,2.40
2022-11-09T07:54:42.051Z,2.83
2022-11-09T07:58:43.533Z,3.33
2022-11-09T08:02:49.290Z,2.55
2022-11-09T08:06:54.240Z,3.00
2022-11-09T08:10:57.133Z,3.05
2022-11-09T08:14:58.512Z,3.20
2022-11-09T08:19:00.007Z,3.70
2022-11-09T08:23:04.913Z,3.60
2022-11-09T08:27:07.011Z,3.83
2022-11-09T08:31:09.686Z,4.22
2022-11-09T08:35:16.792Z,3.28
2022-11-09T08:39:18.468Z,3.42
2022-11-09T08:43:20.010Z,3.65
2022-11-09T08:47:21.423Z,4.18
2022-11-09T08:51:22.816Z,3.60
2022-11-09T08:55:24.738Z,3.58
2022-11-09T08:59:26.154Z,4.43
2022-11-09T09:03:27.569Z,4.03
2022-11-09T09:07:29.066Z,3.28
2022-11-09T09:11:30.752Z,4.55
2022-11-09T09:15:32.205Z,3.50
2022-11-09T09:19:34.749Z,3.40
2022-11-09T09:23:36.682Z,3.63
2022-11-09T09:27:38.473Z,3.90
2022-11-09T09:31:41.023Z,4.30
2022-11-09T09:35:42.421Z,3.67
2022-11-09T09:39:44.291Z,3.70
2022-11-09T09:43:49.689Z,3.97
2022-11-09T09:48:04.368Z,3.60
2022-11-09T09:52:20.408Z,2.40
2022-11-09T09:56:24.935Z,3.38
2022-11-09T10:00:28.009Z,3.35
2022-11-09T10:04:41.780Z,2.90
2022-11-09T10:09:00.779Z,3.47
2022-11-09T10:13:30.122Z,3.08
2022-11-09T10:17:49.846Z,2.80
2022-11-09T10:22:03.126Z,3.85
2022-11-09T10:26:15.717Z,3.63
2022-11-09T10:30:20.674Z,3.55
2022-11-09T10:34:42.238Z,3.15
2022-11-09T10:38:49.704Z,3.50
2022-11-09T10:42:56.059Z,3.30
2022-11-09T10:47:03.466Z,3.50
2022-11-09T10:51:05.868Z,2.25
2022-11-09T10:55:30.562Z,2.63
2022-11-09T10:59:39.631Z,2.10
2022-11-09T11:03:42.530Z,2.45
2022-11-09T11:07:45.498Z,2.80
2022-11-09T11:11:47.368Z,2.30
2022-11-09T11:15:49.315Z,1.77
2022-11-09T11:19:50.853Z,2.70
2022-11-09T11:24:16.094Z,1.88
2022-11-09T11:28:46.251Z,2.63
2022-11-09T11:32:50.634Z,1.55
2022-11-09T11:37:13.714Z,2.03
2022-11-09T11:41:34.051Z,1.70
2022-11-09T11:46:10.298Z,2.20
2022-11-09T11:50:31.988Z,1.85
2022-11-09T11:55:10.579Z,1.52
2022-11-09T11:59:41.307Z,2.00
2022-11-09T12:03:53.538Z,1.90
2022-11-09T12:08:02.814Z,1.83
2022-11-09T12:12:26.221Z,1.90
2022-11-09T12:16:48.241Z,1.90
2022-11-09T12:21:01.760Z,2.08
2022-11-09T12:25:25.111Z,1.20
2022-11-09T12:29:38.219Z,1.90
2022-11-09T12:34:03.363Z,1.42
2022-11-09T12:38:20.365Z,2.60
2022-11-09T12:42:26.006Z,1.55
2022-11-09T12:46:32.921Z,1.80
2022-11-09T12:50:34.569Z,1.23
2022-11-09T12:54:39.918Z,1.95
2022-11-09T12:58:41.462Z,1.52
2022-11-09T13:02:54.079Z,1.67
2022-11-09T13:07:07.864Z,1.40
2022-11-09T13:11:19.075Z,1.15
2022-11-09T13:15:26.670Z,1.33
2022-11-09T13:19:34.365Z,1.00
2022-11-09T13:24:00.169Z,1.38
2022-11-09T13:28:00.435Z,1.65
2022-11-09T13:32:13.837Z,1.42
2022-11-09T13:36:18.417Z,1.45
2022-11-09T13:40:31.874Z,1.20
2022-11-09T13:44:37.550Z,1.90
2022-11-09T13:48:46.344Z,1.42
2022-11-09T13:53:01.705Z,1.27
2022-11-09T13:57:12.912Z,1.73
2022-11-09T14:01:49.077Z,2.00
2022-11-09T14:05:55.058Z,1.23
2022-11-09T14:10:39.581Z,1.40
2022-11-09T14:14:56.329Z,1.50
2022-11-09T14:19:43.190Z,1.45
2022-11-09T14:23:44.645Z,1.80
2022-11-09T14:27:57.065Z,1.60
2022-11-09T14:32:16.033Z,1.83
2022-11-09T14:36:17.654Z,1.70
2022-11-09T14:40:23.433Z,1.73
2022-11-09T14:44:35.547Z,2.05
2022-11-09T14:48:38.212Z,1.98
2022-11-09T14:52:42.584Z,2.20
2022-11-09T14:56:46.146Z,2.20
2022-11-09T15:01:09.491Z,1.70
2022-11-09T15:05:36.153Z,2.22
2022-11-09T15:09:48.061Z,2.00
2022-11-09T15:13:49.556Z,2.22
2022-11-09T15:17:51.684Z,2.22
2022-11-09T15:21:53.237Z,2.67
2022-11-09T15:25:56.159Z,2.28
2022-11-09T15:29:57.659Z,2.35
2022-11-09T15:33:59.365Z,2.35
2022-11-09T15:38:00.827Z,2.55
2022-11-09T15:42:02.273Z,2.60
2022-11-09T15:46:04.575Z,2.33
2022-11-09T15:50:35.763Z,2.50
2022-11-09T15:54:38.125Z,2.53
2022-11-09T15:58:41.029Z,2.47
2022-11-09T16:02:42.564Z,3.10
2022-11-09T16:06:46.811Z,2.50
2022-11-09T16:10:48.672Z,2.80
2022-11-09T16:14:50.155Z,3.10
2022-11-09T16:18:51.617Z,2.53
2022-11-09T16:22:53.264Z,3.03
2022-11-09T16:26:55.002Z,2.85
2022-11-09T16:30:56.475Z,3.28
2022-11-09T16:35:15.813Z,2.95
2022-11-09T16:39:19.711Z,3.28
2022-11-09T16:43:21.613Z,6.10
2022-11-09T16:47:23.172Z,4.20
2022-11-09T16:51:24.639Z,4.07
2022-11-09T16:55:26.097Z,4.50
2022-11-09T16:59:27.627Z,4.15
2022-11-09T17:03:29.103Z,4.15
2022-11-09T17:07:31.769Z,4.50
2022-11-09T17:11:33.465Z,4.28
2022-11-09T17:15:46.528Z,3.30
2022-11-09T17:19:48.236Z,3.92
2022-11-09T17:23:50.507Z,3.97
2022-11-09T17:27:51.991Z,4.93
2022-11-09T17:31:53.634Z,4.47
2022-11-09T17:35:59.763Z,4.93
2022-11-09T17:40:01.288Z,4.85
2022-11-09T17:44:02.809Z,4.70
2022-11-09T17:48:04.580Z,5.07
2022-11-09T17:52:06.090Z,4.13
2022-11-09T17:56:08.502Z,4.70
2022-11-09T18:00:10.880Z,4.18
2022-11-09T18:04:12.520Z,3.97
2022-11-09T18:08:15.424Z,4.72
2022-11-09T18:12:17.089Z,4.75
2022-11-09T18:16:19.889Z,3.42
2022-11-09T18:20:21.525Z,3.53
2022-11-09T18:24:22.986Z,4.35
2022-11-09T18:28:24.475Z,4.28
2022-11-09T18:32:25.880Z,4.30
2022-11-09T18:36:27.881Z,2.88
2022-11-09T18:40:29.521Z,3.20
2022-11-09T18:44:31.279Z,2.97
2022-11-09T18:48:33.111Z,4.93
2022-11-09T18:52:36.772Z,2.90
2022-11-09T18:56:38.367Z,3.55
2022-11-09T19:00:40.051Z,3.55
2022-11-09T19:04:41.541Z,3.10
2022-11-09T19:09:03.514Z,2.78
2022-11-09T19:13:06.022Z,3.42
2022-11-09T19:17:12.172Z,4.07
2022-11-09T19:21:34.594Z,5.03
2022-11-09T19:25:36.053Z,4.03
2022-11-09T19:29:37.980Z,3.83
2022-11-09T19:33:39.471Z,3.65
2022-11-09T19:37:40.981Z,3.42
2022-11-09T19:41:42.973Z,3.72
2022-11-09T19:45:44.481Z,3.20
2022-11-09T19:49:49.174Z,3.22
2022-11-09T19:53:55.659Z,4.20
2022-11-09T19:58:03.507Z,4.03
2022-11-09T20:02:04.992Z,3.97
2022-11-09T20:06:07.560Z,3.65
2022-11-09T20:10:09.539Z,4.38
2022-11-09T20:14:11.913Z,4.25
2022-11-09T20:18:14.109Z,5.63
2022-11-09T20:22:17.616Z,4.70
2022-11-09T20:26:19.197Z,4.82
2022-11-09T20:30:20.946Z,4.10
2022-11-09T20:34:25.959Z,4.78
2022-11-09T20:38:30.788Z,4.07
2022-11-09T20:42:32.431Z,4.05
2022-11-09T20:46:36.530Z,3.92
2022-11-09T20:50:41.037Z,3.33
2022-11-09T20:54:45.098Z,3.17
2022-11-09T20:58:50.099Z,3.58
2022-11-09T21:02:54.647Z,3.20
2022-11-09T21:06:56.326Z,3.28
2022-11-09T21:11:01.314Z,3.72
2022-11-09T21:15:03.239Z,3.85
2022-11-09T21:19:04.713Z,3.60
2022-11-09T21:23:15.477Z,3.40
2022-11-09T21:27:35.509Z,3.40
2022-11-09T21:31:36.982Z,3.55
2022-11-09T21:35:38.575Z,4.03
2022-11-09T21:39:43.194Z,2.95
2022-11-09T21:43:44.671Z,2.42
2022-11-09T21:47:46.259Z,2.40
2022-11-09T21:51:47.953Z,2.30
2022-11-09T21:55:49.372Z,2.30
2022-11-09T21:59:50.906Z,2.90
2022-11-09T22:03:52.652Z,2.80
2022-11-09T22:07:58.568Z,2.63
2022-11-09T22:12:18.394Z,2.63
2022-11-09T22:16:21.593Z,2.55
2022-11-09T22:20:41.766Z,2.03
2022-11-09T22:28:47.824Z,2.00
2022-11-09T22:32:49.411Z,1.80
2022-11-09T22:36:51.007Z,2.05
2022-11-09T22:40:52.810Z,1.33
2022-11-09T22:44:54.692Z,1.70
2022-11-09T22:48:56.238Z,1.48
2022-11-09T22:53:03.280Z,1.65
2022-11-09T22:57:05.622Z,1.60
2022-11-09T23:01:11.814Z,1.52
2022-11-09T23:05:13.795Z,1.10
2022-11-09T23:09:15.491Z,1.50
2022-11-09T23:13:16.950Z,1.65
2022-11-09T23:17:36.971Z,1.40
2022-11-09T23:21:38.714Z,2.15
2022-11-09T23:25:56.376Z,1.63
2022-11-09T23:29:57.851Z,1.70
2022-11-09T23:33:59.318Z,1.52
2022-11-09T23:38:02.567Z,1.48
2022-11-09T23:42:04.202Z,1.65
2022-11-09T23:46:08.912Z,1.95
2022-11-09T23:50:10.342Z,1.60
2022-11-09T23:54:11.813Z,1.77
2022-11-09T23:58:13.320Z,1.50
